sensor_id;sensor_type;location;lat;lon;timestamp;P1;durP1;ratioP1;P2;durP2;ratioP2
7985;SDS011;4038;42.612;23.066;2023-09-18T00:01:35;32.90;;;29.85;;
7985;SDS011;4038;42.612;23.066;2023-09-18T00:04:00;33.35;;;30.58;;
7985;SDS011;4038;42.612;23.066;2023-09-18T00:06:26;33.10;;;30.63;;
7985;SDS011;4038;42.612;23.066;2023-09-18T00:08:51;33.03;;;30.52;;
7985;SDS011;4038;42.612;23.066;2023-09-18T00:11:17;34.65;;;31.95;;
7985;SDS011;4038;42.612;23.066;2023-09-18T00:13:42;33.47;;;30.85;;
7985;SDS011;4038;42.612;23.066;2023-09-18T00:16:08;33.67;;;31.00;;
7985;SDS011;4038;42.612;23.066;2023-09-18T00:18:33;33.75;;;30.67;;
7985;SDS011;4038;42.612;23.066;2023-09-18T00:20:58;32.42;;;29.75;;
7985;SDS011;4038;42.612;23.066;2023-09-18T00:23:23;32.22;;;29.65;;
7985;SDS011;4038;42.612;23.066;2023-09-18T00:25:50;32.88;;;30.10;;
7985;SDS011;4038;42.612;23.066;2023-09-18T00:28:15;32.60;;;29.95;;
7985;SDS011;4038;42.612;23.066;2023-09-18T00:30:46;32.90;;;30.45;;
7985;SDS011;4038;42.612;23.066;2023-09-18T00:33:12;31.67;;;29.38;;
7985;SDS011;4038;42.612;23.066;2023-09-18T00:35:38;32.55;;;30.05;;
7985;SDS011;4038;42.612;23.066;2023-09-18T00:38:03;31.63;;;29.23;;
7985;SDS011;4038;42.612;23.066;2023-09-18T00:40:29;31.25;;;28.73;;
7985;SDS011;4038;42.612;23.066;2023-09-18T00:42:54;32.03;;;29.63;;
7985;SDS011;4038;42.612;23.066;2023-09-18T00:45:19;32.92;;;30.25;;
7985;SDS011;4038;42.612;23.066;2023-09-18T00:47:45;31.33;;;28.63;;
7985;SDS011;4038;42.612;23.066;2023-09-18T00:50:10;31.88;;;29.33;;
7985;SDS011;4038;42.612;23.066;2023-09-18T00:52:37;32.22;;;29.70;;
7985;SDS011;4038;42.612;23.066;2023-09-18T00:55:03;31.60;;;28.95;;
7985;SDS011;4038;42.612;23.066;2023-09-18T00:57:28;32.50;;;29.90;;
7985;SDS011;4038;42.612;23.066;2023-09-18T00:59:54;33.28;;;30.00;;
7985;SDS011;4038;42.612;23.066;2023-09-18T01:02:19;31.92;;;29.33;;
7985;SDS011;4038;42.612;23.066;2023-09-18T01:04:45;33.30;;;30.20;;
7985;SDS011;4038;42.612;23.066;2023-09-18T01:07:12;35.13;;;31.83;;
7985;SDS011;4038;42.612;23.066;2023-09-18T01:09:37;33.90;;;30.60;;
7985;SDS011;4038;42.612;23.066;2023-09-18T01:16:59;35.67;;;32.53;;
7985;SDS011;4038;42.612;23.066;2023-09-18T01:20:01;32.55;;;29.85;;
7985;SDS011;4038;42.612;23.066;2023-09-18T01:22:19;32.85;;;30.25;;
7985;SDS011;4038;42.612;23.066;2023-09-18T01:24:46;33.95;;;31.00;;
7985;SDS011;4038;42.612;23.066;2023-09-18T01:27:15;34.00;;;30.73;;
7985;SDS011;4038;42.612;23.066;2023-09-18T01:29:43;32.72;;;29.83;;
7985;SDS011;4038;42.612;23.066;2023-09-18T01:32:09;34.28;;;31.05;;
7985;SDS011;4038;42.612;23.066;2023-09-18T01:34:35;34.00;;;31.20;;
7985;SDS011;4038;42.612;23.066;2023-09-18T01:37:02;33.60;;;30.48;;
7985;SDS011;4038;42.612;23.066;2023-09-18T01:39:28;33.08;;;30.00;;
7985;SDS011;4038;42.612;23.066;2023-09-18T01:41:57;33.83;;;30.73;;
7985;SDS011;4038;42.612;23.066;2023-09-18T01:44:23;35.22;;;32.17;;
7985;SDS011;4038;42.612;23.066;2023-09-18T01:46:48;38.53;;;33.28;;
7985;SDS011;4038;42.612;23.066;2023-09-18T01:49:16;33.15;;;30.20;;
7985;SDS011;4038;42.612;23.066;2023-09-18T01:51:41;35.47;;;32.38;;
7985;SDS011;4038;42.612;23.066;2023-09-18T01:54:06;36.03;;;32.92;;
7985;SDS011;4038;42.612;23.066;2023-09-18T01:56:31;35.80;;;32.50;;
7985;SDS011;4038;42.612;23.066;2023-09-18T01:58:57;33.63;;;30.85;;
7985;SDS011;4038;42.612;23.066;2023-09-18T02:01:22;33.25;;;30.58;;
7985;SDS011;4038;42.612;23.066;2023-09-18T02:03:47;35.03;;;31.50;;
7985;SDS011;4038;42.612;23.066;2023-09-18T02:06:12;35.05;;;31.77;;
7985;SDS011;4038;42.612;23.066;2023-09-18T02:08:38;35.03;;;31.98;;
7985;SDS011;4038;42.612;23.066;2023-09-18T02:11:03;34.45;;;31.25;;
7985;SDS011;4038;42.612;23.066;2023-09-18T02:13:29;36.38;;;32.97;;
7985;SDS011;4038;42.612;23.066;2023-09-18T02:15:55;36.70;;;32.47;;
7985;SDS011;4038;42.612;23.066;2023-09-18T02:18:20;36.47;;;32.97;;
7985;SDS011;4038;42.612;23.066;2023-09-18T02:20:46;37.13;;;32.42;;
7985;SDS011;4038;42.612;23.066;2023-09-18T02:23:14;33.75;;;30.70;;
7985;SDS011;4038;42.612;23.066;2023-09-18T02:25:39;35.13;;;31.52;;
7985;SDS011;4038;42.612;23.066;2023-09-18T02:28:05;33.05;;;29.85;;
7985;SDS011;4038;42.612;23.066;2023-09-18T02:30:33;32.90;;;30.00;;
7985;SDS011;4038;42.612;23.066;2023-09-18T02:32:58;32.40;;;29.58;;
7985;SDS011;4038;42.612;23.066;2023-09-18T02:35:24;34.70;;;31.52;;
7985;SDS011;4038;42.612;23.066;2023-09-18T02:37:50;34.35;;;30.92;;
7985;SDS011;4038;42.612;23.066;2023-09-18T02:40:15;33.92;;;30.77;;
7985;SDS011;4038;42.612;23.066;2023-09-18T02:42:40;34.47;;;30.45;;
7985;SDS011;4038;42.612;23.066;2023-09-18T02:45:06;32.15;;;29.30;;
7985;SDS011;4038;42.612;23.066;2023-09-18T02:47:31;34.05;;;30.90;;
7985;SDS011;4038;42.612;23.066;2023-09-18T02:49:57;32.95;;;29.67;;
7985;SDS011;4038;42.612;23.066;2023-09-18T02:52:22;33.72;;;29.95;;
7985;SDS011;4038;42.612;23.066;2023-09-18T02:54:47;34.90;;;31.42;;
7985;SDS011;4038;42.612;23.066;2023-09-18T02:57:12;34.08;;;30.77;;
7985;SDS011;4038;42.612;23.066;2023-09-18T02:59:38;33.45;;;30.40;;
7985;SDS011;4038;42.612;23.066;2023-09-18T03:02:03;35.28;;;32.00;;
7985;SDS011;4038;42.612;23.066;2023-09-18T03:04:29;35.05;;;31.85;;
7985;SDS011;4038;42.612;23.066;2023-09-18T03:06:54;35.10;;;31.50;;
7985;SDS011;4038;42.612;23.066;2023-09-18T03:09:20;38.08;;;33.83;;
7985;SDS011;4038;42.612;23.066;2023-09-18T03:11:46;55.40;;;38.00;;
7985;SDS011;4038;42.612;23.066;2023-09-18T03:14:11;53.67;;;37.47;;
7985;SDS011;4038;42.612;23.066;2023-09-18T03:16:36;47.53;;;34.22;;
7985;SDS011;4038;42.612;23.066;2023-09-18T03:19:02;40.78;;;34.25;;
7985;SDS011;4038;42.612;23.066;2023-09-18T03:21:27;56.28;;;35.20;;
7985;SDS011;4038;42.612;23.066;2023-09-18T03:23:52;79.75;;;37.38;;
7985;SDS011;4038;42.612;23.066;2023-09-18T03:26:18;47.67;;;36.55;;
7985;SDS011;4038;42.612;23.066;2023-09-18T03:28:43;39.42;;;34.85;;
7985;SDS011;4038;42.612;23.066;2023-09-18T03:31:08;38.08;;;34.15;;
7985;SDS011;4038;42.612;23.066;2023-09-18T03:33:33;38.10;;;34.10;;
7985;SDS011;4038;42.612;23.066;2023-09-18T03:35:59;37.88;;;33.67;;
7985;SDS011;4038;42.612;23.066;2023-09-18T03:38:24;39.05;;;33.50;;
7985;SDS011;4038;42.612;23.066;2023-09-18T03:40:50;49.60;;;34.90;;
7985;SDS011;4038;42.612;23.066;2023-09-18T03:43:15;54.00;;;37.17;;
7985;SDS011;4038;42.612;23.066;2023-09-18T03:45:40;55.85;;;36.65;;
7985;SDS011;4038;42.612;23.066;2023-09-18T03:48:06;66.22;;;37.72;;
7985;SDS011;4038;42.612;23.066;2023-09-18T03:50:31;56.22;;;37.90;;
7985;SDS011;4038;42.612;23.066;2023-09-18T03:52:56;101.55;;;37.70;;
7985;SDS011;4038;42.612;23.066;2023-09-18T03:55:21;107.93;;;36.03;;
7985;SDS011;4038;42.612;23.066;2023-09-18T03:57:47;86.53;;;36.05;;
7985;SDS011;4038;42.612;23.066;2023-09-18T04:00:13;103.68;;;35.30;;
7985;SDS011;4038;42.612;23.066;2023-09-18T04:02:39;154.90;;;37.28;;
7985;SDS011;4038;42.612;23.066;2023-09-18T04:05:04;84.97;;;33.88;;
7985;SDS011;4038;42.612;23.066;2023-09-18T04:07:30;92.85;;;33.70;;
7985;SDS011;4038;42.612;23.066;2023-09-18T04:09:56;70.05;;;32.40;;
7985;SDS011;4038;42.612;23.066;2023-09-18T04:12:21;68.18;;;32.42;;
7985;SDS011;4038;42.612;23.066;2023-09-18T04:14:46;163.60;;;34.55;;
7985;SDS011;4038;42.612;23.066;2023-09-18T04:17:12;177.07;;;39.03;;
7985;SDS011;4038;42.612;23.066;2023-09-18T04:19:37;97.60;;;36.80;;
7985;SDS011;4038;42.612;23.066;2023-09-18T04:22:02;179.05;;;39.63;;
7985;SDS011;4038;42.612;23.066;2023-09-18T04:24:28;106.70;;;38.80;;
7985;SDS011;4038;42.612;23.066;2023-09-18T04:26:53;193.60;;;42.97;;
7985;SDS011;4038;42.612;23.066;2023-09-18T04:29:18;68.93;;;36.80;;
7985;SDS011;4038;42.612;23.066;2023-09-18T04:31:44;51.42;;;35.65;;
7985;SDS011;4038;42.612;23.066;2023-09-18T04:34:09;53.40;;;37.22;;
7985;SDS011;4038;42.612;23.066;2023-09-18T04:36:35;63.83;;;35.75;;
7985;SDS011;4038;42.612;23.066;2023-09-18T04:39:02;59.58;;;37.88;;
7985;SDS011;4038;42.612;23.066;2023-09-18T04:41:29;71.80;;;38.42;;
7985;SDS011;4038;42.612;23.066;2023-09-18T04:43:54;58.08;;;36.17;;
7985;SDS011;4038;42.612;23.066;2023-09-18T04:46:20;95.78;;;38.17;;
7985;SDS011;4038;42.612;23.066;2023-09-18T04:48:45;43.45;;;34.90;;
7985;SDS011;4038;42.612;23.066;2023-09-18T04:51:10;42.13;;;32.30;;
7985;SDS011;4038;42.612;23.066;2023-09-18T04:53:37;52.90;;;38.70;;
7985;SDS011;4038;42.612;23.066;2023-09-18T04:56:02;61.20;;;37.17;;
7985;SDS011;4038;42.612;23.066;2023-09-18T04:58:28;54.28;;;37.47;;
7985;SDS011;4038;42.612;23.066;2023-09-18T05:00:57;56.70;;;38.13;;
7985;SDS011;4038;42.612;23.066;2023-09-18T05:03:22;51.00;;;38.30;;
7985;SDS011;4038;42.612;23.066;2023-09-18T05:05:48;46.25;;;38.78;;
7985;SDS011;4038;42.612;23.066;2023-09-18T05:08:13;47.10;;;42.00;;
7985;SDS011;4038;42.612;23.066;2023-09-18T05:10:38;43.03;;;38.45;;
7985;SDS011;4038;42.612;23.066;2023-09-18T05:13:04;40.63;;;36.53;;
7985;SDS011;4038;42.612;23.066;2023-09-18T05:15:29;46.10;;;41.30;;
7985;SDS011;4038;42.612;23.066;2023-09-18T05:17:55;40.53;;;36.53;;
7985;SDS011;4038;42.612;23.066;2023-09-18T05:20:22;38.83;;;35.10;;
7985;SDS011;4038;42.612;23.066;2023-09-18T05:22:49;39.58;;;35.70;;
7985;SDS011;4038;42.612;23.066;2023-09-18T05:25:14;39.00;;;35.28;;
7985;SDS011;4038;42.612;23.066;2023-09-18T05:27:40;40.10;;;36.22;;
7985;SDS011;4038;42.612;23.066;2023-09-18T05:30:19;37.25;;;33.70;;
7985;SDS011;4038;42.612;23.066;2023-09-18T05:32:46;36.47;;;33.00;;
7985;SDS011;4038;42.612;23.066;2023-09-18T05:35:13;39.45;;;35.42;;
7985;SDS011;4038;42.612;23.066;2023-09-18T05:37:38;38.08;;;34.45;;
7985;SDS011;4038;42.612;23.066;2023-09-18T05:40:07;37.70;;;34.05;;
7985;SDS011;4038;42.612;23.066;2023-09-18T05:42:36;38.17;;;34.17;;
7985;SDS011;4038;42.612;23.066;2023-09-18T05:45:01;35.72;;;32.40;;
7985;SDS011;4038;42.612;23.066;2023-09-18T05:47:27;37.92;;;34.22;;
7985;SDS011;4038;42.612;23.066;2023-09-18T05:49:52;37.45;;;33.72;;
7985;SDS011;4038;42.612;23.066;2023-09-18T05:52:17;37.72;;;34.00;;
7985;SDS011;4038;42.612;23.066;2023-09-18T05:54:42;43.35;;;35.20;;
7985;SDS011;4038;42.612;23.066;2023-09-18T05:57:08;39.28;;;35.13;;
7985;SDS011;4038;42.612;23.066;2023-09-18T05:59:33;39.55;;;35.42;;
7985;SDS011;4038;42.612;23.066;2023-09-18T06:01:58;40.13;;;35.95;;
7985;SDS011;4038;42.612;23.066;2023-09-18T06:04:24;40.30;;;36.35;;
7985;SDS011;4038;42.612;23.066;2023-09-18T06:06:49;39.15;;;35.28;;
7985;SDS011;4038;42.612;23.066;2023-09-18T06:09:16;40.17;;;36.00;;
7985;SDS011;4038;42.612;23.066;2023-09-18T06:11:41;39.25;;;35.33;;
7985;SDS011;4038;42.612;23.066;2023-09-18T06:14:07;39.80;;;36.00;;
7985;SDS011;4038;42.612;23.066;2023-09-18T06:16:32;41.08;;;36.88;;
7985;SDS011;4038;42.612;23.066;2023-09-18T06:18:57;43.67;;;38.78;;
7985;SDS011;4038;42.612;23.066;2023-09-18T06:21:25;42.30;;;37.63;;
7985;SDS011;4038;42.612;23.066;2023-09-18T06:23:50;45.75;;;41.00;;
7985;SDS011;4038;42.612;23.066;2023-09-18T06:26:16;45.60;;;40.63;;
7985;SDS011;4038;42.612;23.066;2023-09-18T06:28:41;46.08;;;39.25;;
7985;SDS011;4038;42.612;23.066;2023-09-18T06:31:07;48.00;;;42.60;;
7985;SDS011;4038;42.612;23.066;2023-09-18T06:33:32;46.80;;;41.80;;
7985;SDS011;4038;42.612;23.066;2023-09-18T06:35:57;49.50;;;41.42;;
7985;SDS011;4038;42.612;23.066;2023-09-18T06:38:23;47.45;;;42.28;;
7985;SDS011;4038;42.612;23.066;2023-09-18T06:40:48;46.55;;;41.50;;
7985;SDS011;4038;42.612;23.066;2023-09-18T06:43:15;47.33;;;40.88;;
7985;SDS011;4038;42.612;23.066;2023-09-18T06:45:40;49.42;;;40.22;;
7985;SDS011;4038;42.612;23.066;2023-09-18T06:48:05;43.25;;;38.83;;
7985;SDS011;4038;42.612;23.066;2023-09-18T06:50:31;44.80;;;40.10;;
7985;SDS011;4038;42.612;23.066;2023-09-18T06:52:56;44.75;;;39.80;;
7985;SDS011;4038;42.612;23.066;2023-09-18T06:55:21;42.95;;;38.33;;
7985;SDS011;4038;42.612;23.066;2023-09-18T06:57:47;43.88;;;39.65;;
7985;SDS011;4038;42.612;23.066;2023-09-18T07:00:13;44.55;;;40.38;;
7985;SDS011;4038;42.612;23.066;2023-09-18T07:02:40;44.03;;;38.90;;
7985;SDS011;4038;42.612;23.066;2023-09-18T07:05:05;43.58;;;38.80;;
7985;SDS011;4038;42.612;23.066;2023-09-18T07:07:31;41.20;;;36.97;;
7985;SDS011;4038;42.612;23.066;2023-09-18T07:09:57;42.95;;;38.63;;
7985;SDS011;4038;42.612;23.066;2023-09-18T07:12:22;42.75;;;38.38;;
7985;SDS011;4038;42.612;23.066;2023-09-18T07:14:48;44.50;;;39.90;;
7985;SDS011;4038;42.612;23.066;2023-09-18T07:17:13;44.10;;;39.47;;
7985;SDS011;4038;42.612;23.066;2023-09-18T07:19:39;45.38;;;41.03;;
7985;SDS011;4038;42.612;23.066;2023-09-18T07:22:04;45.90;;;41.30;;
7985;SDS011;4038;42.612;23.066;2023-09-18T07:24:29;44.20;;;40.20;;
7985;SDS011;4038;42.612;23.066;2023-09-18T07:26:54;44.00;;;39.97;;
7985;SDS011;4038;42.612;23.066;2023-09-18T07:29:20;44.42;;;39.97;;
7985;SDS011;4038;42.612;23.066;2023-09-18T07:31:45;44.22;;;39.83;;
7985;SDS011;4038;42.612;23.066;2023-09-18T07:34:11;43.40;;;39.50;;
7985;SDS011;4038;42.612;23.066;2023-09-18T07:36:37;43.85;;;39.65;;
7985;SDS011;4038;42.612;23.066;2023-09-18T07:39:02;44.15;;;39.92;;
7985;SDS011;4038;42.612;23.066;2023-09-18T07:41:29;41.15;;;37.55;;
7985;SDS011;4038;42.612;23.066;2023-09-18T07:43:54;42.75;;;38.85;;
7985;SDS011;4038;42.612;23.066;2023-09-18T07:46:19;43.47;;;39.25;;
7985;SDS011;4038;42.612;23.066;2023-09-18T07:48:45;40.80;;;37.35;;
7985;SDS011;4038;42.612;23.066;2023-09-18T07:51:10;38.85;;;35.58;;
7985;SDS011;4038;42.612;23.066;2023-09-18T07:53:36;38.67;;;35.50;;
7985;SDS011;4038;42.612;23.066;2023-09-18T07:56:01;39.25;;;36.00;;
7985;SDS011;4038;42.612;23.066;2023-09-18T07:58:27;38.20;;;35.10;;
7985;SDS011;4038;42.612;23.066;2023-09-18T08:00:53;37.72;;;34.65;;
7985;SDS011;4038;42.612;23.066;2023-09-18T08:03:19;37.88;;;34.95;;
7985;SDS011;4038;42.612;23.066;2023-09-18T08:05:44;37.53;;;34.33;;
7985;SDS011;4038;42.612;23.066;2023-09-18T08:08:10;36.33;;;33.42;;
7985;SDS011;4038;42.612;23.066;2023-09-18T08:10:38;37.47;;;34.67;;
7985;SDS011;4038;42.612;23.066;2023-09-18T08:13:04;38.75;;;35.45;;
7985;SDS011;4038;42.612;23.066;2023-09-18T08:15:29;38.97;;;35.85;;
7985;SDS011;4038;42.612;23.066;2023-09-18T08:17:55;39.15;;;35.95;;
7985;SDS011;4038;42.612;23.066;2023-09-18T08:20:20;40.00;;;36.72;;
7985;SDS011;4038;42.612;23.066;2023-09-18T08:22:45;40.38;;;36.83;;
7985;SDS011;4038;42.612;23.066;2023-09-18T08:25:12;39.47;;;36.08;;
7985;SDS011;4038;42.612;23.066;2023-09-18T08:27:38;41.38;;;37.97;;
7985;SDS011;4038;42.612;23.066;2023-09-18T08:30:09;39.53;;;36.15;;
7985;SDS011;4038;42.612;23.066;2023-09-18T08:32:35;40.95;;;37.45;;
7985;SDS011;4038;42.612;23.066;2023-09-18T08:35:00;38.10;;;35.10;;
7985;SDS011;4038;42.612;23.066;2023-09-18T08:37:28;38.33;;;35.50;;
7985;SDS011;4038;42.612;23.066;2023-09-18T08:39:54;39.60;;;36.17;;
7985;SDS011;4038;42.612;23.066;2023-09-18T08:42:20;38.83;;;35.55;;
7985;SDS011;4038;42.612;23.066;2023-09-18T08:44:45;38.30;;;35.40;;
7985;SDS011;4038;42.612;23.066;2023-09-18T08:47:13;39.08;;;35.85;;
7985;SDS011;4038;42.612;23.066;2023-09-18T08:49:39;39.08;;;36.00;;
7985;SDS011;4038;42.612;23.066;2023-09-18T08:52:05;38.65;;;35.55;;
7985;SDS011;4038;42.612;23.066;2023-09-18T08:54:31;39.00;;;35.90;;
7985;SDS011;4038;42.612;23.066;2023-09-18T08:56:56;39.65;;;36.67;;
7985;SDS011;4038;42.612;23.066;2023-09-18T08:59:21;38.97;;;35.97;;
7985;SDS011;4038;42.612;23.066;2023-09-18T09:01:47;38.58;;;35.50;;
7985;SDS011;4038;42.612;23.066;2023-09-18T09:04:12;37.05;;;34.10;;
7985;SDS011;4038;42.612;23.066;2023-09-18T09:06:37;38.45;;;35.45;;
7985;SDS011;4038;42.612;23.066;2023-09-18T09:09:03;38.95;;;35.35;;
7985;SDS011;4038;42.612;23.066;2023-09-18T09:11:28;37.83;;;34.92;;
7985;SDS011;4038;42.612;23.066;2023-09-18T09:14:10;36.38;;;33.50;;
7985;SDS011;4038;42.612;23.066;2023-09-18T09:16:46;38.65;;;35.38;;
7985;SDS011;4038;42.612;23.066;2023-09-18T09:19:12;37.30;;;34.20;;
7985;SDS011;4038;42.612;23.066;2023-09-18T09:21:38;37.30;;;34.45;;
7985;SDS011;4038;42.612;23.066;2023-09-18T09:24:04;38.05;;;35.05;;
7985;SDS011;4038;42.612;23.066;2023-09-18T09:26:29;38.67;;;35.65;;
7985;SDS011;4038;42.612;23.066;2023-09-18T09:28:54;38.30;;;35.03;;
7985;SDS011;4038;42.612;23.066;2023-09-18T09:33:50;37.00;;;33.75;;
7985;SDS011;4038;42.612;23.066;2023-09-18T09:36:18;36.17;;;33.13;;
7985;SDS011;4038;42.612;23.066;2023-09-18T09:38:43;34.97;;;32.33;;
7985;SDS011;4038;42.612;23.066;2023-09-18T09:41:11;36.00;;;33.30;;
7985;SDS011;4038;42.612;23.066;2023-09-18T09:43:38;36.50;;;33.70;;
7985;SDS011;4038;42.612;23.066;2023-09-18T09:46:06;36.58;;;33.88;;
7985;SDS011;4038;42.612;23.066;2023-09-18T09:48:33;36.72;;;33.90;;
7985;SDS011;4038;42.612;23.066;2023-09-18T09:50:59;34.70;;;32.10;;
7985;SDS011;4038;42.612;23.066;2023-09-18T09:53:44;34.83;;;32.38;;
7985;SDS011;4038;42.612;23.066;2023-09-18T09:56:13;33.33;;;30.77;;
7985;SDS011;4038;42.612;23.066;2023-09-18T09:58:38;33.38;;;30.83;;
7985;SDS011;4038;42.612;23.066;2023-09-18T10:01:08;32.65;;;30.25;;
7985;SDS011;4038;42.612;23.066;2023-09-18T10:03:36;32.80;;;30.20;;
7985;SDS011;4038;42.612;23.066;2023-09-18T10:06:03;33.03;;;30.73;;
7985;SDS011;4038;42.612;23.066;2023-09-18T10:08:29;34.90;;;32.17;;
7985;SDS011;4038;42.612;23.066;2023-09-18T10:10:56;36.80;;;34.05;;
7985;SDS011;4038;42.612;23.066;2023-09-18T10:14:07;36.45;;;33.42;;
7985;SDS011;4038;42.612;23.066;2023-09-18T10:16:12;36.83;;;33.92;;
7985;SDS011;4038;42.612;23.066;2023-09-18T10:18:44;36.22;;;33.42;;
7985;SDS011;4038;42.612;23.066;2023-09-18T10:21:25;38.28;;;35.45;;
7985;SDS011;4038;42.612;23.066;2023-09-18T10:26:25;36.80;;;34.13;;
7985;SDS011;4038;42.612;23.066;2023-09-18T10:28:59;36.78;;;33.95;;
7985;SDS011;4038;42.612;23.066;2023-09-18T10:31:28;35.45;;;32.85;;
7985;SDS011;4038;42.612;23.066;2023-09-18T10:33:54;36.03;;;33.30;;
7985;SDS011;4038;42.612;23.066;2023-09-18T10:36:19;37.17;;;34.30;;
7985;SDS011;4038;42.612;23.066;2023-09-18T10:38:46;35.20;;;32.38;;
7985;SDS011;4038;42.612;23.066;2023-09-18T10:41:15;33.50;;;30.83;;
7985;SDS011;4038;42.612;23.066;2023-09-18T10:43:43;33.67;;;30.98;;
7985;SDS011;4038;42.612;23.066;2023-09-18T10:46:08;33.42;;;30.40;;
7985;SDS011;4038;42.612;23.066;2023-09-18T10:48:34;34.88;;;31.38;;
7985;SDS011;4038;42.612;23.066;2023-09-18T10:50:59;32.92;;;30.13;;
7985;SDS011;4038;42.612;23.066;2023-09-18T10:53:31;32.33;;;29.73;;
7985;SDS011;4038;42.612;23.066;2023-09-18T10:55:56;34.42;;;31.92;;
7985;SDS011;4038;42.612;23.066;2023-09-18T10:58:25;32.15;;;29.67;;
7985;SDS011;4038;42.612;23.066;2023-09-18T11:00:53;31.33;;;28.83;;
7985;SDS011;4038;42.612;23.066;2023-09-18T11:03:21;31.83;;;29.30;;
7985;SDS011;4038;42.612;23.066;2023-09-18T11:05:48;32.28;;;29.75;;
7985;SDS011;4038;42.612;23.066;2023-09-18T11:11:01;30.13;;;27.92;;
7985;SDS011;4038;42.612;23.066;2023-09-18T11:13:34;28.88;;;26.67;;
7985;SDS011;4038;42.612;23.066;2023-09-18T11:19:08;28.38;;;26.10;;
7985;SDS011;4038;42.612;23.066;2023-09-18T11:21:32;27.48;;;25.50;;
7985;SDS011;4038;42.612;23.066;2023-09-18T11:23:59;28.90;;;27.00;;
7985;SDS011;4038;42.612;23.066;2023-09-18T11:26:28;28.77;;;26.60;;
7985;SDS011;4038;42.612;23.066;2023-09-18T11:28:54;27.15;;;24.98;;
7985;SDS011;4038;42.612;23.066;2023-09-18T11:31:38;27.33;;;25.52;;
7985;SDS011;4038;42.612;23.066;2023-09-18T11:34:15;28.13;;;26.13;;
7985;SDS011;4038;42.612;23.066;2023-09-18T11:36:44;28.58;;;26.65;;
7985;SDS011;4038;42.612;23.066;2023-09-18T11:39:09;29.15;;;27.25;;
7985;SDS011;4038;42.612;23.066;2023-09-18T11:41:36;28.33;;;26.33;;
7985;SDS011;4038;42.612;23.066;2023-09-18T11:46:45;28.02;;;25.92;;
7985;SDS011;4038;42.612;23.066;2023-09-18T11:49:11;27.08;;;25.27;;
7985;SDS011;4038;42.612;23.066;2023-09-18T11:51:37;29.00;;;26.80;;
7985;SDS011;4038;42.612;23.066;2023-09-18T11:54:02;28.67;;;26.58;;
7985;SDS011;4038;42.612;23.066;2023-09-18T11:56:29;27.65;;;25.55;;
7985;SDS011;4038;42.612;23.066;2023-09-18T11:58:54;27.63;;;25.40;;
7985;SDS011;4038;42.612;23.066;2023-09-18T12:01:20;26.80;;;24.90;;
7985;SDS011;4038;42.612;23.066;2023-09-18T12:03:54;26.52;;;24.75;;
7985;SDS011;4038;42.612;23.066;2023-09-18T12:06:20;26.23;;;24.33;;
7985;SDS011;4038;42.612;23.066;2023-09-18T12:08:46;26.35;;;24.55;;
7985;SDS011;4038;42.612;23.066;2023-09-18T12:11:11;27.15;;;25.25;;
7985;SDS011;4038;42.612;23.066;2023-09-18T12:13:41;28.13;;;26.13;;
7985;SDS011;4038;42.612;23.066;2023-09-18T12:16:07;28.10;;;26.30;;
7985;SDS011;4038;42.612;23.066;2023-09-18T12:18:34;27.70;;;25.80;;
7985;SDS011;4038;42.612;23.066;2023-09-18T12:21:02;26.90;;;25.02;;
7985;SDS011;4038;42.612;23.066;2023-09-18T12:23:29;25.85;;;23.98;;
7985;SDS011;4038;42.612;23.066;2023-09-18T12:26:01;26.02;;;24.23;;
7985;SDS011;4038;42.612;23.066;2023-09-18T12:28:27;26.30;;;24.48;;
7985;SDS011;4038;42.612;23.066;2023-09-18T12:30:55;27.67;;;25.63;;
7985;SDS011;4038;42.612;23.066;2023-09-18T12:33:21;27.40;;;25.40;;
7985;SDS011;4038;42.612;23.066;2023-09-18T12:35:46;26.48;;;24.67;;
7985;SDS011;4038;42.612;23.066;2023-09-18T12:38:15;29.42;;;27.42;;
7985;SDS011;4038;42.612;23.066;2023-09-18T12:40:41;28.20;;;25.95;;
7985;SDS011;4038;42.612;23.066;2023-09-18T12:43:07;40.45;;;37.20;;
7985;SDS011;4038;42.612;23.066;2023-09-18T12:45:32;27.90;;;26.10;;
7985;SDS011;4038;42.612;23.066;2023-09-18T12:47:59;34.67;;;32.10;;
7985;SDS011;4038;42.612;23.066;2023-09-18T12:50:25;31.27;;;29.15;;
7985;SDS011;4038;42.612;23.066;2023-09-18T12:52:50;27.85;;;25.85;;
7985;SDS011;4038;42.612;23.066;2023-09-18T12:55:22;28.33;;;26.52;;
7985;SDS011;4038;42.612;23.066;2023-09-18T12:57:52;29.27;;;27.40;;
7985;SDS011;4038;42.612;23.066;2023-09-18T13:00:18;28.73;;;26.83;;
7985;SDS011;4038;42.612;23.066;2023-09-18T13:02:47;28.40;;;26.60;;
7985;SDS011;4038;42.612;23.066;2023-09-18T13:05:18;30.30;;;28.13;;
7985;SDS011;4038;42.612;23.066;2023-09-18T13:07:47;28.73;;;26.92;;
7985;SDS011;4038;42.612;23.066;2023-09-18T13:10:15;31.30;;;29.20;;
7985;SDS011;4038;42.612;23.066;2023-09-18T13:12:48;27.40;;;25.48;;
7985;SDS011;4038;42.612;23.066;2023-09-18T13:15:33;31.35;;;29.50;;
7985;SDS011;4038;42.612;23.066;2023-09-18T13:17:59;31.05;;;28.90;;
7985;SDS011;4038;42.612;23.066;2023-09-18T13:20:25;31.33;;;29.35;;
7985;SDS011;4038;42.612;23.066;2023-09-18T13:22:54;29.80;;;28.00;;
7985;SDS011;4038;42.612;23.066;2023-09-18T13:25:23;31.10;;;28.98;;
7985;SDS011;4038;42.612;23.066;2023-09-18T13:27:49;30.48;;;28.63;;
7985;SDS011;4038;42.612;23.066;2023-09-18T13:30:18;28.48;;;26.63;;
7985;SDS011;4038;42.612;23.066;2023-09-18T13:32:45;29.75;;;27.75;;
7985;SDS011;4038;42.612;23.066;2023-09-18T13:35:13;29.58;;;27.65;;
7985;SDS011;4038;42.612;23.066;2023-09-18T13:37:39;29.15;;;27.25;;
7985;SDS011;4038;42.612;23.066;2023-09-18T13:40:08;29.23;;;27.33;;
7985;SDS011;4038;42.612;23.066;2023-09-18T13:42:39;29.27;;;26.98;;
7985;SDS011;4038;42.612;23.066;2023-09-18T13:45:05;27.70;;;25.67;;
7985;SDS011;4038;42.612;23.066;2023-09-18T13:47:31;27.45;;;25.45;;
7985;SDS011;4038;42.612;23.066;2023-09-18T13:49:56;27.50;;;25.52;;
7985;SDS011;4038;42.612;23.066;2023-09-18T13:52:23;27.60;;;25.70;;
7985;SDS011;4038;42.612;23.066;2023-09-18T13:54:49;28.40;;;26.30;;
7985;SDS011;4038;42.612;23.066;2023-09-18T13:57:19;29.83;;;27.83;;
7985;SDS011;4038;42.612;23.066;2023-09-18T13:59:45;27.80;;;25.85;;
7985;SDS011;4038;42.612;23.066;2023-09-18T14:02:11;28.70;;;26.80;;
7985;SDS011;4038;42.612;23.066;2023-09-18T14:04:36;28.58;;;26.60;;
7985;SDS011;4038;42.612;23.066;2023-09-18T14:07:02;28.08;;;26.17;;
7985;SDS011;4038;42.612;23.066;2023-09-18T14:09:28;28.45;;;26.35;;
7985;SDS011;4038;42.612;23.066;2023-09-18T14:11:54;28.23;;;26.13;;
7985;SDS011;4038;42.612;23.066;2023-09-18T14:14:19;27.90;;;26.00;;
7985;SDS011;4038;42.612;23.066;2023-09-18T14:16:44;27.13;;;25.42;;
7985;SDS011;4038;42.612;23.066;2023-09-18T14:19:09;26.80;;;24.95;;
7985;SDS011;4038;42.612;23.066;2023-09-18T14:21:36;27.85;;;25.75;;
7985;SDS011;4038;42.612;23.066;2023-09-18T14:24:01;27.35;;;25.45;;
7985;SDS011;4038;42.612;23.066;2023-09-18T14:26:27;27.65;;;25.63;;
7985;SDS011;4038;42.612;23.066;2023-09-18T14:28:52;27.30;;;25.50;;
7985;SDS011;4038;42.612;23.066;2023-09-18T14:31:18;27.77;;;25.77;;
7985;SDS011;4038;42.612;23.066;2023-09-18T14:33:43;28.45;;;26.35;;
7985;SDS011;4038;42.612;23.066;2023-09-18T14:36:12;27.88;;;25.67;;
7985;SDS011;4038;42.612;23.066;2023-09-18T14:38:37;27.17;;;25.38;;
7985;SDS011;4038;42.612;23.066;2023-09-18T14:41:03;27.20;;;25.40;;
7985;SDS011;4038;42.612;23.066;2023-09-18T14:43:28;27.58;;;25.63;;
7985;SDS011;4038;42.612;23.066;2023-09-18T14:45:53;27.63;;;25.70;;
7985;SDS011;4038;42.612;23.066;2023-09-18T14:48:21;27.52;;;25.63;;